createdAt,value
2023-03-06T01:03:38.614Z,89.93
2023-03-06T01:06:06.271Z,89.91
2023-03-06T01:08:36.899Z,89.69
2023-03-06T01:18:51.187Z,89.69
2023-03-06T01:25:49.842Z,89.43
2023-03-06T02:10:01.931Z,91.69
2023-03-06T02:12:29.426Z,91.84
2023-03-06T02:14:59.546Z,91.79
2023-03-06T02:17:29.792Z,91.67
2023-03-06T02:20:34.663Z,91.60
2023-03-06T02:23:51.357Z,91.74
2023-03-06T02:26:28.262Z,91.90
2023-03-06T02:28:57.801Z,91.99
2023-03-06T02:31:31.673Z,91.91
2023-03-06T02:34:19.961Z,91.83
2023-03-06T02:36:54.231Z,91.88
2023-03-06T02:39:25.636Z,92.05
2023-03-06T02:41:52.963Z,91.68
2023-03-06T02:47:53.323Z,92.00
2023-03-06T02:50:26.310Z,91.84
2023-03-06T02:52:53.421Z,91.82
2023-03-06T02:55:20.822Z,91.70
2023-03-06T02:57:48.138Z,91.59
2023-03-06T03:00:16.221Z,91.50
2023-03-06T03:02:46.939Z,91.21
2023-03-06T03:05:14.701Z,91.17
2023-03-06T03:07:42.167Z,90.91
2023-03-06T03:10:09.843Z,90.83
2023-03-06T03:12:36.874Z,90.73
2023-03-06T03:15:04.636Z,90.70
2023-03-06T03:17:31.924Z,90.84
2023-03-06T03:19:58.981Z,90.73
2023-03-06T03:22:26.002Z,90.46
2023-03-06T03:24:53.326Z,90.61
2023-03-06T03:27:20.516Z,90.79
2023-03-06T03:29:52.664Z,90.84
2023-03-06T03:32:28.705Z,90.77
2023-03-06T03:34:59.054Z,90.79
2023-03-06T03:37:32.044Z,90.80
2023-03-06T03:39:59.597Z,90.39
2023-03-06T03:42:34.119Z,90.33
2023-03-06T03:45:05.486Z,90.32
2023-03-06T03:47:32.584Z,90.43
2023-03-06T03:50:02.130Z,89.97
2023-03-06T03:52:38.313Z,89.96
2023-03-06T03:55:08.927Z,89.73
2023-03-06T03:57:36.071Z,89.66
2023-03-06T04:00:04.077Z,89.54
2023-03-06T04:02:58.021Z,89.58
2023-03-06T04:08:48.554Z,89.32
2023-03-06T04:11:19.058Z,89.51
2023-03-06T04:13:47.448Z,89.52
2023-03-06T04:16:20.211Z,89.42
2023-03-06T04:18:52.911Z,89.39
2023-03-06T04:21:23.349Z,89.23
2023-03-06T04:23:55.718Z,89.02
2023-03-06T04:26:25.803Z,89.01
2023-03-06T04:28:59.366Z,89.22
2023-03-06T04:31:26.894Z,89.05
2023-03-06T04:33:59.469Z,88.97
2023-03-06T04:36:32.977Z,88.86
2023-03-06T04:42:13.787Z,89.02
2023-03-06T04:45:02.460Z,89.19
2023-03-06T04:51:13.624Z,89.25
2023-03-06T04:54:02.770Z,89.24
2023-03-06T04:57:01.462Z,89.23
2023-03-06T04:59:44.157Z,89.03
2023-03-06T05:05:24.551Z,89.20
2023-03-06T05:08:31.511Z,89.23
2023-03-06T05:11:16.696Z,89.10
2023-03-06T05:13:01.646Z,89.15
2023-03-06T05:13:45.494Z,89.17
2023-03-06T05:16:44.247Z,89.35
2023-03-06T05:19:48.555Z,89.35
2023-03-06T05:22:45.503Z,89.20
2023-03-06T05:25:13.645Z,89.05
2023-03-06T05:27:41.183Z,88.87
2023-03-06T05:30:33.339Z,88.85
2023-03-06T05:36:10.665Z,88.66
2023-03-06T05:38:40.939Z,88.05
2023-03-06T05:41:18.770Z,88.05
2023-03-06T05:47:24.661Z,87.94
2023-03-06T05:49:54.954Z,88.05
2023-03-06T05:52:50.499Z,88.02
2023-03-06T05:55:21.291Z,88.18
2023-03-06T05:57:51.722Z,88.28
2023-03-06T06:00:22.699Z,88.15
2023-03-06T06:02:52.067Z,87.91
2023-03-06T06:05:26.485Z,88.00
2023-03-06T06:08:47.269Z,87.75
2023-03-06T06:14:15.082Z,88.08
2023-03-06T06:16:42.587Z,88.05
2023-03-06T06:19:20.125Z,88.24
2023-03-06T06:21:52.552Z,88.43
2023-03-06T06:24:24.923Z,88.11
2023-03-06T06:27:00.884Z,88.42
2023-03-06T06:29:29.466Z,88.11
2023-03-06T06:31:59.292Z,87.93
2023-03-06T06:34:26.937Z,87.69
2023-03-06T06:36:59.537Z,87.51
2023-03-06T06:39:27.520Z,87.40
2023-03-06T06:42:28.003Z,87.16
2023-03-06T06:44:53.270Z,87.30
2023-03-06T06:47:25.055Z,86.83
2023-03-06T06:50:09.781Z,86.56
2023-03-06T06:52:36.658Z,86.21
2023-03-06T06:55:03.758Z,86.48
2023-03-06T06:57:30.686Z,86.19
2023-03-06T07:00:23.081Z,86.02
2023-03-06T07:02:51.425Z,85.36
2023-03-06T07:05:22.150Z,84.98
2023-03-06T07:07:51.907Z,84.80
2023-03-06T07:10:24.595Z,84.85
2023-03-06T07:13:34.763Z,84.78
2023-03-06T07:17:01.976Z,84.48
2023-03-06T07:19:32.675Z,84.54
2023-03-06T08:42:54.450Z,82.89
2023-03-06T08:45:21.044Z,82.52
2023-03-06T08:47:50.629Z,82.15
2023-03-06T08:50:17.376Z,82.60
2023-03-06T08:52:43.789Z,82.57
2023-03-06T08:55:10.749Z,82.58
2023-03-06T08:57:37.161Z,82.06
2023-03-06T09:00:08.710Z,82.14
2023-03-06T09:02:35.437Z,82.33
2023-03-06T09:05:08.461Z,82.35
2023-03-06T09:07:36.020Z,82.01
2023-03-06T09:10:03.255Z,81.97
2023-03-06T09:12:32.653Z,82.03
2023-03-06T09:15:04.934Z,81.53
2023-03-06T09:17:31.408Z,81.55
2023-03-06T09:19:57.925Z,81.17
2023-03-06T09:22:24.616Z,80.51
2023-03-06T09:24:51.137Z,80.50
2023-03-06T09:27:18.070Z,80.44
2023-03-06T09:29:44.570Z,80.62
2023-03-06T09:32:12.186Z,79.97
2023-03-06T09:34:39.830Z,80.08
2023-03-06T09:37:06.259Z,79.85
2023-03-06T09:39:34.335Z,80.34
2023-03-06T09:42:00.773Z,80.29
2023-03-06T09:44:34.343Z,80.41
2023-03-06T09:47:10.349Z,80.16
2023-03-06T09:49:52.543Z,79.98
2023-03-06T09:52:54.341Z,79.84
2023-03-06T09:55:27.248Z,79.76
2023-03-06T09:58:02.632Z,79.81
2023-03-06T10:00:55.346Z,79.53
2023-03-06T10:03:38.043Z,79.92
2023-03-06T10:06:25.114Z,79.75
2023-03-06T10:08:57.746Z,79.33
2023-03-06T10:12:03.975Z,78.75
2023-03-06T10:14:37.568Z,79.05
2023-03-06T10:17:05.223Z,78.70
2023-03-06T10:19:36.036Z,78.59
2023-03-06T10:22:13.700Z,77.88
2023-03-06T10:24:48.887Z,78.20
2023-03-06T10:27:47.588Z,78.10
2023-03-06T10:30:32.514Z,78.10
2023-03-06T10:33:07.554Z,77.33
2023-03-06T10:35:47.263Z,77.65
2023-03-06T10:38:26.583Z,77.92
2023-03-06T10:41:21.165Z,78.08
2023-03-06T10:43:59.807Z,77.86
2023-03-06T10:46:45.277Z,77.88
2023-03-06T10:49:25.933Z,78.27
2023-03-06T10:52:14.302Z,78.60
2023-03-06T10:54:43.849Z,79.29
2023-03-06T10:57:26.478Z,80.94
2023-03-06T10:59:57.053Z,82.98
2023-03-06T11:02:38.548Z,83.91
2023-03-06T11:05:07.131Z,85.08
2023-03-06T11:07:35.887Z,85.64
2023-03-06T11:10:19.007Z,86.72
2023-03-06T11:13:08.469Z,86.21
2023-03-06T11:15:34.950Z,86.01
2023-03-06T11:18:23.669Z,84.81
2023-03-06T11:20:53.386Z,84.55
2023-03-06T11:23:41.118Z,84.79
2023-03-06T11:26:27.478Z,84.79
2023-03-06T11:29:11.149Z,84.32
2023-03-06T11:32:12.639Z,83.29
2023-03-06T11:34:51.066Z,82.57
2023-03-06T11:37:23.206Z,82.36
2023-03-06T11:40:05.114Z,81.79
2023-03-06T11:42:57.492Z,82.18
2023-03-06T11:45:42.184Z,82.76
2023-03-06T11:48:20.791Z,83.00
2023-03-06T11:50:53.020Z,82.27
2023-03-06T11:53:42.921Z,81.36
2023-03-06T11:56:18.467Z,81.74
2023-03-06T11:58:48.286Z,81.06
2023-03-06T12:01:27.319Z,81.24
2023-03-06T12:04:20.328Z,81.19
2023-03-06T12:07:21.014Z,81.24
2023-03-06T12:09:56.326Z,81.75
2023-03-06T12:12:53.875Z,82.81
2023-03-06T12:15:36.860Z,82.22
2023-03-06T12:18:03.424Z,82.03
2023-03-06T12:20:58.048Z,81.22
2023-03-06T12:23:53.583Z,80.90
2023-03-06T12:26:43.990Z,80.46
2023-03-06T12:29:19.568Z,80.63
2023-03-06T12:31:56.947Z,80.86
2023-03-06T12:34:40.126Z,80.89
2023-03-06T12:37:22.524Z,81.21
2023-03-06T12:40:09.834Z,81.01
2023-03-06T12:42:39.483Z,80.69
2023-03-06T12:45:30.370Z,80.38
2023-03-06T12:47:58.037Z,80.31
2023-03-06T12:50:33.370Z,80.55
2023-03-06T12:53:05.842Z,80.19
2023-03-06T12:55:48.647Z,80.48
2023-03-06T12:58:29.929Z,81.18
2023-03-06T13:01:27.179Z,81.60
2023-03-06T13:04:22.742Z,80.92
2023-03-06T13:06:54.806Z,80.05
2023-03-06T13:09:37.677Z,79.29
2023-03-06T13:12:17.870Z,79.98
2023-03-06T13:14:53.811Z,80.41
2023-03-06T13:17:20.910Z,80.10
2023-03-06T13:20:09.215Z,80.59
2023-03-06T13:22:35.869Z,80.66
2023-03-06T13:25:17.487Z,80.79
2023-03-06T13:27:54.744Z,80.87
2023-03-06T13:30:27.886Z,81.99
2023-03-06T13:32:56.124Z,82.43
2023-03-06T13:35:35.772Z,82.81
2023-03-06T13:38:03.468Z,83.30
2023-03-06T13:40:35.401Z,83.76
2023-03-06T13:43:18.273Z,83.35
2023-03-06T13:45:47.193Z,84.01
2023-03-06T13:48:43.487Z,86.19
2023-03-06T13:51:24.447Z,87.68
2023-03-06T13:53:53.937Z,87.71
2023-03-06T13:56:58.242Z,88.28
2023-03-06T13:59:33.637Z,87.34
2023-03-06T14:02:12.245Z,87.86
2023-03-06T14:04:38.659Z,87.72
2023-03-06T14:07:07.986Z,86.91
2023-03-06T14:09:49.176Z,85.40
2023-03-06T14:12:23.507Z,85.86
2023-03-06T14:14:56.776Z,85.58
2023-03-06T14:17:29.096Z,85.11
2023-03-06T14:20:00.754Z,84.87
2023-03-06T14:22:30.235Z,84.79
2023-03-06T14:25:20.515Z,83.39
2023-03-06T14:27:49.576Z,83.34
2023-03-06T14:30:21.003Z,83.91
2023-03-06T14:32:49.908Z,84.97
2023-03-06T14:35:32.676Z,85.32
2023-03-06T14:38:02.728Z,85.49
2023-03-06T14:40:36.380Z,86.26
2023-03-06T14:43:18.114Z,87.22
2023-03-06T14:46:06.266Z,87.26
2023-03-06T14:48:45.536Z,87.93
2023-03-06T14:51:17.057Z,88.85
2023-03-06T14:53:45.682Z,89.34
2023-03-06T14:56:17.276Z,89.57
2023-03-06T14:59:00.587Z,89.59
2023-03-06T15:01:34.437Z,88.71
2023-03-06T15:04:02.097Z,88.96
2023-03-06T15:06:37.629Z,87.19
2023-03-06T15:09:25.183Z,86.26
2023-03-06T15:12:29.522Z,86.16
2023-03-06T15:15:02.713Z,86.14
2023-03-06T15:17:32.468Z,85.30
2023-03-06T15:20:00.390Z,84.96
2023-03-06T15:22:37.858Z,84.21
2023-03-06T15:25:12.708Z,83.91
2023-03-06T15:27:40.602Z,83.53
2023-03-06T15:30:24.533Z,82.36
2023-03-06T15:32:51.286Z,82.08
2023-03-06T15:35:33.588Z,82.42
2023-03-06T15:38:02.993Z,80.72
2023-03-06T15:40:31.783Z,81.32
2023-03-06T15:42:58.893Z,80.61
2023-03-06T15:45:27.797Z,80.28
2023-03-06T15:47:55.912Z,79.73
2023-03-06T15:50:25.896Z,80.14
2023-03-06T15:52:52.762Z,79.79
2023-03-06T15:55:22.310Z,79.86
2023-03-06T15:57:59.515Z,79.40
2023-03-06T16:00:34.028Z,80.02
2023-03-06T16:03:02.064Z,79.86
2023-03-06T16:05:29.920Z,79.97
2023-03-06T16:07:56.764Z,79.79
2023-03-06T16:10:30.953Z,79.14
2023-03-06T16:13:03.118Z,79.34
2023-03-06T16:15:33.054Z,79.19
2023-03-06T16:18:00.100Z,79.65
2023-03-06T16:20:28.912Z,79.04
2023-03-06T16:22:55.800Z,79.39
2023-03-06T16:25:24.284Z,79.53
2023-03-06T16:27:59.377Z,79.02
2023-03-06T16:30:28.320Z,79.47
2023-03-06T16:32:54.839Z,79.79
2023-03-06T16:35:21.869Z,79.25
2023-03-06T16:37:48.702Z,79.39
2023-03-06T16:40:37.597Z,78.87
2023-03-06T16:43:05.325Z,78.28
2023-03-06T16:45:38.854Z,77.71
2023-03-06T16:48:06.416Z,77.45
2023-03-06T16:50:37.890Z,77.43
2023-03-06T16:53:05.199Z,77.60
2023-03-06T16:55:32.957Z,77.91
2023-03-06T16:57:59.706Z,78.29
2023-03-06T17:00:31.071Z,78.28
2023-03-06T17:02:57.865Z,78.42
2023-03-06T17:05:24.389Z,78.36
2023-03-06T17:07:50.963Z,77.70
2023-03-06T17:10:19.233Z,77.56
2023-03-06T17:12:45.722Z,77.46
2023-03-06T17:15:12.761Z,77.88
2023-03-06T17:17:39.362Z,78.18
2023-03-06T17:20:08.242Z,78.13
2023-03-06T17:22:35.942Z,77.27
2023-03-06T17:25:04.948Z,78.01
2023-03-06T17:27:34.475Z,78.43
2023-03-06T17:30:01.350Z,78.68
2023-03-06T17:32:28.802Z,78.16
2023-03-06T17:34:55.343Z,77.81
2023-03-06T17:37:21.950Z,78.18
2023-03-06T17:39:48.400Z,78.35
2023-03-06T17:42:15.501Z,78.35
2023-03-06T17:44:41.980Z,78.61
2023-03-06T17:47:08.668Z,78.08
2023-03-06T17:49:35.027Z,77.85
2023-03-06T17:52:03.059Z,77.25
2023-03-06T17:54:37.771Z,77.50
2023-03-06T17:57:05.890Z,77.02
2023-03-06T17:59:36.069Z,77.19
2023-03-06T18:02:03.560Z,77.25
2023-03-06T18:04:30.522Z,77.23
2023-03-06T18:06:59.935Z,77.31
2023-03-06T18:09:26.511Z,76.85
2023-03-06T18:11:53.015Z,77.39
2023-03-06T18:14:19.667Z,76.33
2023-03-06T18:16:47.414Z,76.26
2023-03-06T18:19:52.154Z,76.12
2023-03-06T18:23:13.474Z,75.82
2023-03-06T18:26:37.268Z,75.01
2023-03-06T18:30:09.240Z,75.25
2023-03-06T18:36:01.193Z,74.62
2023-03-06T18:57:48.058Z,71.82
2023-03-06T19:00:22.001Z,71.68
2023-03-06T19:02:52.978Z,70.74
2023-03-06T19:05:30.732Z,71.18
2023-03-06T19:08:02.393Z,70.64
2023-03-06T19:10:34.862Z,70.05
2023-03-06T19:13:07.358Z,70.06
2023-03-06T19:15:48.433Z,69.88
2023-03-06T19:18:21.383Z,69.19
2023-03-06T19:20:48.879Z,68.46
2023-03-06T19:23:16.936Z,68.66
2023-03-06T19:25:58.933Z,68.37
2023-03-06T19:28:27.000Z,68.35
2023-03-06T19:30:53.659Z,68.31
2023-03-06T19:33:23.453Z,68.50
2023-03-06T19:35:50.894Z,68.31
2023-03-06T19:38:17.522Z,67.88
2023-03-06T19:40:53.902Z,68.42
2023-03-06T19:43:26.412Z,68.49
2023-03-06T19:46:17.028Z,68.56
2023-03-06T19:48:51.056Z,68.62
2023-03-06T19:51:23.157Z,68.56
2023-03-06T19:53:53.389Z,68.75
2023-03-06T19:56:36.560Z,68.51
2023-03-06T19:59:04.078Z,67.84
2023-03-06T20:01:33.080Z,67.67
2023-03-06T20:04:00.812Z,67.72
2023-03-06T20:06:37.865Z,67.59
2023-03-06T20:09:08.102Z,67.19
2023-03-06T20:11:35.799Z,67.54
2023-03-06T20:14:06.011Z,67.09
2023-03-06T20:16:33.662Z,67.07
2023-03-06T20:19:02.680Z,67.01
2023-03-06T20:21:32.087Z,67.40
2023-03-06T20:23:59.088Z,67.39
2023-03-06T20:26:28.261Z,67.51
2023-03-06T20:28:55.571Z,67.01
2023-03-06T20:31:25.251Z,67.39
2023-03-06T20:33:54.037Z,67.16
2023-03-06T20:36:26.862Z,66.24
2023-03-06T20:38:54.150Z,65.83
2023-03-06T20:41:24.071Z,66.40
2023-03-06T20:43:51.286Z,66.90
2023-03-06T20:46:19.617Z,68.35
2023-03-06T20:48:49.243Z,70.29
2023-03-06T20:51:20.464Z,71.02
2023-03-06T20:53:49.161Z,74.26
2023-03-06T20:56:18.878Z,74.33
2023-03-06T20:58:45.506Z,74.40
2023-03-06T21:01:23.083Z,74.76
2023-03-06T21:03:50.397Z,74.99
2023-03-06T21:06:17.941Z,75.36
2023-03-06T21:08:45.281Z,76.49
2023-03-06T21:11:11.997Z,77.25
2023-03-06T21:13:38.591Z,77.93
2023-03-06T21:16:12.088Z,77.94
2023-03-06T21:18:40.028Z,78.28
2023-03-06T21:21:12.828Z,77.82
2023-03-06T21:23:39.833Z,77.63
2023-03-06T21:26:06.681Z,78.26
2023-03-06T21:28:34.148Z,78.31
2023-03-06T21:31:01.660Z,78.27
2023-03-06T21:33:29.201Z,78.93
2023-03-06T21:35:56.327Z,78.14
2023-03-06T21:38:23.488Z,78.68
2023-03-06T21:40:53.090Z,78.61
2023-03-06T21:43:20.139Z,78.86
2023-03-06T21:45:58.622Z,80.07
2023-03-06T21:48:25.526Z,80.54
2023-03-06T21:50:52.644Z,80.65
2023-03-06T21:53:19.354Z,81.00
2023-03-06T21:55:46.095Z,81.40
2023-03-06T21:58:12.884Z,81.31
2023-03-06T22:00:39.764Z,81.46
2023-03-06T22:03:06.638Z,80.10
2023-03-06T22:05:34.050Z,80.56
2023-03-06T22:08:01.668Z,80.11
2023-03-06T22:10:34.697Z,79.39
2023-03-06T22:13:01.569Z,78.58
2023-03-06T22:15:28.582Z,77.70
2023-03-06T22:17:55.656Z,76.86
2023-03-06T22:20:25.504Z,76.52
2023-03-06T22:22:52.489Z,76.26
2023-03-06T22:25:22.194Z,77.25
2023-03-06T22:27:48.749Z,77.92
2023-03-06T22:30:16.049Z,78.33
2023-03-06T22:32:42.933Z,78.25
2023-03-06T22:35:10.180Z,78.32
2023-03-06T22:38:06.154Z,77.51
2023-03-06T22:40:36.231Z,77.29
2023-03-06T22:43:06.289Z,76.85
2023-03-06T22:45:40.043Z,76.58
2023-03-06T22:48:16.149Z,76.25
2023-03-06T22:50:43.193Z,76.05
2023-03-06T22:53:26.669Z,76.46
2023-03-06T22:56:08.196Z,76.84
2023-03-06T22:58:39.685Z,77.71
2023-03-06T23:01:10.782Z,78.23
2023-03-06T23:03:43.304Z,78.36
2023-03-06T23:06:45.736Z,79.07
2023-03-06T23:09:24.731Z,79.93
2023-03-06T23:11:57.780Z,80.69
2023-03-06T23:14:35.864Z,81.43
2023-03-06T23:17:31.923Z,82.14
2023-03-06T23:19:59.322Z,83.44
2023-03-06T23:22:31.038Z,84.18
2023-03-06T23:27:50.539Z,84.81
2023-03-06T23:31:02.888Z,85.65
2023-03-06T23:33:39.015Z,85.69
2023-03-06T23:36:14.864Z,85.39
2023-03-06T23:38:42.025Z,86.03
2023-03-06T23:41:19.201Z,85.44
2023-03-06T23:43:55.152Z,85.40
2023-03-06T23:47:06.308Z,85.27
2023-03-06T23:49:34.630Z,85.64
2023-03-06T23:52:22.176Z,85.49
2023-03-06T23:55:23.701Z,85.18
2023-03-06T23:57:51.366Z,84.90
